Saint Petersburg, FL (33709)

1:25 PM EDT on September 02, 2015 (GMT -0400)
West Lealman | | Change Station
CLOSE
Current Station
Personal Weather Station
Location: Kenneth City, FL
Elevation: 15 ft
Nearby Weather Stations

Elev 15 ft 27.82 °N, 82.73 °W | Updated 45 seconds ago

Clear
Clear
91.0 °F
Feels Like 104 °F
N
2.0
Wind Variable Wind from WNW
Gusts 6.0 mph

Today
High -- | Low -- °F
--% Chance of Precip.
Yesterday
High -- | Low -- °F
Precip. -- in
7:10 AM 7:50 PM
Waning Gibbous, 78% visible
Pressure 30.07 in
Visibility 10.0 miles
Clouds Few 3600 ft
Heat Index 104 °F
Dew Point 77 °F
Humidity 63%
Rainfall 0.00 in
Snow Depth Not available.
UV 13 out of 12
Pollen 2.70 out of 12
Air Quality Not available.
Flu Activity Not available.
METAR KPIE 021653Z 25006KT 10SM FEW036 32/23 A3007 RMK AO2 SLP183 T03220233
Pressure 30.07 in
Visibility 10.0 miles
Clouds Few 3600 ft
Heat Index 104 °F
Dew Point 77 °F
Humidity 63%
Rainfall 0.00 in
Snow Depth Not available.
UV 13 out of 12
Pollen 2.70 out of 12
Air Quality Not available.
Flu Activity Not available.
METAR KPIE 021653Z 25006KT 10SM FEW036 32/23 A3007 RMK AO2 SLP183 T03220233

10-Day Weather Forecast

×

Almanac

Astronomy

Sep. 02, 2015 Rise Set
Actual Time
Civil Twilight
Nautical Twilight
Astronomical Twilight
Moon
Length of Visible Light
Length of Day
Tomorrow will be .
, % of the Moon is Illuminated

Today's Extremes

State Highs State Lows

Community

WunderPhotos

Upload Photos

1,851,785 photos uploaded!

WunderBlogs® & News

Nearby

Air Quality

  Air Quality AQ Index Pollutant
Not available.

Snow Depth

Station Depth Elevation

Earthquake Activity

City Distance Mag. Time & Date
Minimum magnitude displayed is 2.5.

Coastal Water Temperatures

Place Temperature

Stations

Nearby Weather Stations

Station Location Temp. Windchill Dew Point Humidity Wind Precip. Elev Updated Type